sensor_id;sensor_type;location;lat;lon;timestamp;temperature;humidity
11043;DHT22;5574;48.786;10.120;2023-05-27T00:00:29;15.20;98.50
11043;DHT22;5574;48.786;10.120;2023-05-27T00:02:59;15.10;98.50
11043;DHT22;5574;48.786;10.120;2023-05-27T00:05:26;15.10;99.20
11043;DHT22;5574;48.786;10.120;2023-05-27T00:07:53;15.00;98.70
11043;DHT22;5574;48.786;10.120;2023-05-27T00:10:20;15.00;98.10
11043;DHT22;5574;48.786;10.120;2023-05-27T00:12:46;15.00;98.60
11043;DHT22;5574;48.786;10.120;2023-05-27T00:15:13;15.00;98.70
11043;DHT22;5574;48.786;10.120;2023-05-27T00:17:40;14.90;99.00
11043;DHT22;5574;48.786;10.120;2023-05-27T00:20:10;14.90;98.70
11043;DHT22;5574;48.786;10.120;2023-05-27T00:22:38;14.80;98.50
11043;DHT22;5574;48.786;10.120;2023-05-27T00:25:06;14.80;99.10
11043;DHT22;5574;48.786;10.120;2023-05-27T00:27:33;14.80;99.00
11043;DHT22;5574;48.786;10.120;2023-05-27T00:30:00;14.80;98.90
11043;DHT22;5574;48.786;10.120;2023-05-27T00:32:27;14.70;98.60
11043;DHT22;5574;48.786;10.120;2023-05-27T00:34:53;14.70;99.30
11043;DHT22;5574;48.786;10.120;2023-05-27T00:37:21;14.70;99.10
11043;DHT22;5574;48.786;10.120;2023-05-27T00:39:48;14.70;99.50
11043;DHT22;5574;48.786;10.120;2023-05-27T00:42:15;14.60;99.20
11043;DHT22;5574;48.786;10.120;2023-05-27T00:44:42;14.60;99.10
11043;DHT22;5574;48.786;10.120;2023-05-27T00:47:09;14.60;99.40
11043;DHT22;5574;48.786;10.120;2023-05-27T00:49:36;14.50;99.40
11043;DHT22;5574;48.786;10.120;2023-05-27T00:52:03;14.50;99.40
11043;DHT22;5574;48.786;10.120;2023-05-27T00:54:31;14.50;99.00
11043;DHT22;5574;48.786;10.120;2023-05-27T00:56:58;14.50;99.40
11043;DHT22;5574;48.786;10.120;2023-05-27T00:59:24;14.50;99.10
11043;DHT22;5574;48.786;10.120;2023-05-27T01:01:51;14.50;99.40
11043;DHT22;5574;48.786;10.120;2023-05-27T01:04:19;14.50;99.00
11043;DHT22;5574;48.786;10.120;2023-05-27T01:06:54;14.40;99.30
11043;DHT22;5574;48.786;10.120;2023-05-27T01:09:27;14.40;99.20
11043;DHT22;5574;48.786;10.120;2023-05-27T01:12:05;14.40;99.40
11043;DHT22;5574;48.786;10.120;2023-05-27T01:14:34;14.40;99.60
11043;DHT22;5574;48.786;10.120;2023-05-27T01:17:05;14.30;99.20
11043;DHT22;5574;48.786;10.120;2023-05-27T01:19:34;14.30;99.30
11043;DHT22;5574;48.786;10.120;2023-05-27T01:22:02;14.30;99.50
11043;DHT22;5574;48.786;10.120;2023-05-27T01:24:31;14.30;99.30
11043;DHT22;5574;48.786;10.120;2023-05-27T01:26:58;14.30;99.30
11043;DHT22;5574;48.786;10.120;2023-05-27T01:29:26;14.30;99.70
11043;DHT22;5574;48.786;10.120;2023-05-27T01:31:57;14.20;99.90
11043;DHT22;5574;48.786;10.120;2023-05-27T01:34:30;14.20;99.90
11043;DHT22;5574;48.786;10.120;2023-05-27T01:37:04;14.20;99.70
11043;DHT22;5574;48.786;10.120;2023-05-27T01:39:33;14.20;99.90
11043;DHT22;5574;48.786;10.120;2023-05-27T01:42:01;14.20;99.90
11043;DHT22;5574;48.786;10.120;2023-05-27T01:44:29;14.20;99.90
11043;DHT22;5574;48.786;10.120;2023-05-27T01:46:58;14.20;99.90
11043;DHT22;5574;48.786;10.120;2023-05-27T01:49:25;14.10;99.90
11043;DHT22;5574;48.786;10.120;2023-05-27T01:51:52;14.10;99.90
11043;DHT22;5574;48.786;10.120;2023-05-27T01:54:19;14.10;99.20
11043;DHT22;5574;48.786;10.120;2023-05-27T01:56:47;14.10;99.80
11043;DHT22;5574;48.786;10.120;2023-05-27T01:59:14;14.00;99.70
11043;DHT22;5574;48.786;10.120;2023-05-27T02:01:40;14.10;99.90
11043;DHT22;5574;48.786;10.120;2023-05-27T02:04:07;14.10;99.90
11043;DHT22;5574;48.786;10.120;2023-05-27T02:06:34;14.00;99.90
11043;DHT22;5574;48.786;10.120;2023-05-27T02:09:01;14.10;99.90
11043;DHT22;5574;48.786;10.120;2023-05-27T02:11:28;14.10;99.60
11043;DHT22;5574;48.786;10.120;2023-05-27T02:13:56;14.00;99.90
11043;DHT22;5574;48.786;10.120;2023-05-27T02:16:24;14.00;99.80
11043;DHT22;5574;48.786;10.120;2023-05-27T02:18:51;14.00;99.90
11043;DHT22;5574;48.786;10.120;2023-05-27T02:21:18;14.00;99.80
11043;DHT22;5574;48.786;10.120;2023-05-27T02:23:44;14.00;99.90
11043;DHT22;5574;48.786;10.120;2023-05-27T02:26:11;14.00;99.80
11043;DHT22;5574;48.786;10.120;2023-05-27T02:28:38;14.00;99.90
11043;DHT22;5574;48.786;10.120;2023-05-27T02:31:06;13.90;99.90
11043;DHT22;5574;48.786;10.120;2023-05-27T02:33:32;13.90;99.90
11043;DHT22;5574;48.786;10.120;2023-05-27T02:35:59;13.90;99.90
11043;DHT22;5574;48.786;10.120;2023-05-27T02:38:26;13.90;99.90
11043;DHT22;5574;48.786;10.120;2023-05-27T02:40:52;13.90;99.90
11043;DHT22;5574;48.786;10.120;2023-05-27T02:43:19;13.90;99.90
11043;DHT22;5574;48.786;10.120;2023-05-27T02:45:46;13.90;99.90
11043;DHT22;5574;48.786;10.120;2023-05-27T02:48:14;13.90;99.90
11043;DHT22;5574;48.786;10.120;2023-05-27T02:50:40;13.90;99.90
11043;DHT22;5574;48.786;10.120;2023-05-27T02:53:08;13.90;99.90
11043;DHT22;5574;48.786;10.120;2023-05-27T02:55:34;13.90;99.90
11043;DHT22;5574;48.786;10.120;2023-05-27T02:58:01;13.90;99.90
11043;DHT22;5574;48.786;10.120;2023-05-27T03:00:29;13.90;99.90
11043;DHT22;5574;48.786;10.120;2023-05-27T03:02:55;13.80;99.90
11043;DHT22;5574;48.786;10.120;2023-05-27T03:05:23;13.80;99.90
11043;DHT22;5574;48.786;10.120;2023-05-27T03:07:50;13.80;99.90
11043;DHT22;5574;48.786;10.120;2023-05-27T03:10:17;13.70;99.90
11043;DHT22;5574;48.786;10.120;2023-05-27T03:12:43;13.70;99.90
11043;DHT22;5574;48.786;10.120;2023-05-27T03:15:10;13.80;99.90
11043;DHT22;5574;48.786;10.120;2023-05-27T03:17:37;13.80;99.90
11043;DHT22;5574;48.786;10.120;2023-05-27T03:20:05;13.70;99.90
11043;DHT22;5574;48.786;10.120;2023-05-27T03:22:35;13.70;99.90
11043;DHT22;5574;48.786;10.120;2023-05-27T03:25:02;13.70;99.90
11043;DHT22;5574;48.786;10.120;2023-05-27T03:27:29;13.60;99.90
11043;DHT22;5574;48.786;10.120;2023-05-27T03:29:56;13.70;99.90
11043;DHT22;5574;48.786;10.120;2023-05-27T03:32:23;13.60;99.90
11043;DHT22;5574;48.786;10.120;2023-05-27T03:34:49;13.60;99.90
11043;DHT22;5574;48.786;10.120;2023-05-27T03:37:16;13.50;99.90
11043;DHT22;5574;48.786;10.120;2023-05-27T03:39:44;13.50;99.90
11043;DHT22;5574;48.786;10.120;2023-05-27T03:42:11;13.40;99.90
11043;DHT22;5574;48.786;10.120;2023-05-27T03:44:37;13.40;99.90
11043;DHT22;5574;48.786;10.120;2023-05-27T03:47:05;13.40;99.90
11043;DHT22;5574;48.786;10.120;2023-05-27T03:49:32;13.30;99.90
11043;DHT22;5574;48.786;10.120;2023-05-27T03:51:58;13.40;99.90
11043;DHT22;5574;48.786;10.120;2023-05-27T03:54:25;13.30;99.90
11043;DHT22;5574;48.786;10.120;2023-05-27T03:56:53;13.20;99.90
11043;DHT22;5574;48.786;10.120;2023-05-27T03:59:20;13.20;99.90
11043;DHT22;5574;48.786;10.120;2023-05-27T04:01:47;13.20;99.90
11043;DHT22;5574;48.786;10.120;2023-05-27T04:04:14;13.20;99.90
11043;DHT22;5574;48.786;10.120;2023-05-27T04:06:41;13.20;99.90
11043;DHT22;5574;48.786;10.120;2023-05-27T04:09:08;13.20;99.90
11043;DHT22;5574;48.786;10.120;2023-05-27T04:11:35;13.20;99.90
11043;DHT22;5574;48.786;10.120;2023-05-27T04:14:03;13.20;99.90
11043;DHT22;5574;48.786;10.120;2023-05-27T04:16:32;13.20;99.90
11043;DHT22;5574;48.786;10.120;2023-05-27T04:18:59;13.20;99.90
11043;DHT22;5574;48.786;10.120;2023-05-27T04:21:26;13.20;99.90
11043;DHT22;5574;48.786;10.120;2023-05-27T04:23:52;13.20;99.90
11043;DHT22;5574;48.786;10.120;2023-05-27T04:26:19;13.20;99.90
11043;DHT22;5574;48.786;10.120;2023-05-27T04:28:46;13.20;99.90
11043;DHT22;5574;48.786;10.120;2023-05-27T04:31:14;13.20;99.90
11043;DHT22;5574;48.786;10.120;2023-05-27T04:33:41;13.10;99.90
11043;DHT22;5574;48.786;10.120;2023-05-27T04:36:08;13.20;99.90
11043;DHT22;5574;48.786;10.120;2023-05-27T04:38:35;13.10;99.90
11043;DHT22;5574;48.786;10.120;2023-05-27T04:41:02;13.10;99.90
11043;DHT22;5574;48.786;10.120;2023-05-27T04:43:29;13.20;99.90
11043;DHT22;5574;48.786;10.120;2023-05-27T04:45:57;13.20;99.90
11043;DHT22;5574;48.786;10.120;2023-05-27T04:48:26;13.30;99.90
11043;DHT22;5574;48.786;10.120;2023-05-27T04:50:53;13.30;99.90
11043;DHT22;5574;48.786;10.120;2023-05-27T04:53:20;13.40;99.90
11043;DHT22;5574;48.786;10.120;2023-05-27T04:55:47;13.50;99.90
11043;DHT22;5574;48.786;10.120;2023-05-27T04:58:13;13.60;99.90
11043;DHT22;5574;48.786;10.120;2023-05-27T05:00:40;13.60;99.90
11043;DHT22;5574;48.786;10.120;2023-05-27T05:03:15;13.70;99.90
11043;DHT22;5574;48.786;10.120;2023-05-27T05:05:48;13.70;99.90
11043;DHT22;5574;48.786;10.120;2023-05-27T05:08:15;13.80;99.90
11043;DHT22;5574;48.786;10.120;2023-05-27T05:10:41;13.80;99.90
11043;DHT22;5574;48.786;10.120;2023-05-27T05:13:08;13.90;99.90
11043;DHT22;5574;48.786;10.120;2023-05-27T05:15:35;13.90;99.90
11043;DHT22;5574;48.786;10.120;2023-05-27T05:18:02;14.00;99.70
11043;DHT22;5574;48.786;10.120;2023-05-27T05:20:28;14.00;99.70
11043;DHT22;5574;48.786;10.120;2023-05-27T05:22:57;14.00;99.60
11043;DHT22;5574;48.786;10.120;2023-05-27T05:25:24;14.20;99.90
11043;DHT22;5574;48.786;10.120;2023-05-27T05:27:51;14.20;99.20
11043;DHT22;5574;48.786;10.120;2023-05-27T05:30:18;14.30;99.90
11043;DHT22;5574;48.786;10.120;2023-05-27T05:32:45;14.40;99.90
11043;DHT22;5574;48.786;10.120;2023-05-27T05:35:12;14.40;99.80
11043;DHT22;5574;48.786;10.120;2023-05-27T05:37:38;14.50;99.70
11043;DHT22;5574;48.786;10.120;2023-05-27T05:40:10;14.60;99.70
11043;DHT22;5574;48.786;10.120;2023-05-27T05:42:37;14.60;99.50
11043;DHT22;5574;48.786;10.120;2023-05-27T05:45:04;14.70;99.10
11043;DHT22;5574;48.786;10.120;2023-05-27T05:47:32;14.70;99.00
11043;DHT22;5574;48.786;10.120;2023-05-27T05:49:58;14.80;98.50
11043;DHT22;5574;48.786;10.120;2023-05-27T05:52:25;14.80;99.50
11043;DHT22;5574;48.786;10.120;2023-05-27T05:54:52;14.90;98.40
11043;DHT22;5574;48.786;10.120;2023-05-27T05:57:20;15.00;98.40
11043;DHT22;5574;48.786;10.120;2023-05-27T05:59:46;15.00;98.50
11043;DHT22;5574;48.786;10.120;2023-05-27T06:02:13;15.10;98.60
11043;DHT22;5574;48.786;10.120;2023-05-27T06:04:40;15.20;99.30
11043;DHT22;5574;48.786;10.120;2023-05-27T06:07:06;15.20;98.60
11043;DHT22;5574;48.786;10.120;2023-05-27T06:09:33;15.30;98.20
11043;DHT22;5574;48.786;10.120;2023-05-27T06:12:00;15.30;98.20
11043;DHT22;5574;48.786;10.120;2023-05-27T06:14:28;15.40;98.00
11043;DHT22;5574;48.786;10.120;2023-05-27T06:16:54;15.50;98.10
11043;DHT22;5574;48.786;10.120;2023-05-27T06:19:21;15.60;98.10
11043;DHT22;5574;48.786;10.120;2023-05-27T06:21:48;15.60;97.80
11043;DHT22;5574;48.786;10.120;2023-05-27T06:24:14;15.60;97.90
11043;DHT22;5574;48.786;10.120;2023-05-27T06:26:41;15.70;97.20
11043;DHT22;5574;48.786;10.120;2023-05-27T06:29:08;15.80;97.60
11043;DHT22;5574;48.786;10.120;2023-05-27T06:31:36;15.90;97.30
11043;DHT22;5574;48.786;10.120;2023-05-27T06:34:03;15.90;97.00
11043;DHT22;5574;48.786;10.120;2023-05-27T06:36:29;16.00;97.20
11043;DHT22;5574;48.786;10.120;2023-05-27T06:38:56;16.10;97.00
11043;DHT22;5574;48.786;10.120;2023-05-27T06:41:24;16.30;97.60
11043;DHT22;5574;48.786;10.120;2023-05-27T06:43:51;16.30;96.50
11043;DHT22;5574;48.786;10.120;2023-05-27T06:46:17;16.40;97.30
11043;DHT22;5574;48.786;10.120;2023-05-27T06:48:45;16.50;97.40
11043;DHT22;5574;48.786;10.120;2023-05-27T06:51:13;16.50;96.30
11043;DHT22;5574;48.786;10.120;2023-05-27T06:53:40;16.60;96.40
11043;DHT22;5574;48.786;10.120;2023-05-27T06:56:07;16.50;96.10
11043;DHT22;5574;48.786;10.120;2023-05-27T06:58:33;16.60;96.40
11043;DHT22;5574;48.786;10.120;2023-05-27T07:01:00;16.70;96.30
11043;DHT22;5574;48.786;10.120;2023-05-27T07:03:27;16.80;96.50
11043;DHT22;5574;48.786;10.120;2023-05-27T07:05:55;16.90;96.20
11043;DHT22;5574;48.786;10.120;2023-05-27T07:08:22;17.00;96.10
11043;DHT22;5574;48.786;10.120;2023-05-27T07:10:48;17.00;96.30
11043;DHT22;5574;48.786;10.120;2023-05-27T07:13:15;17.00;95.60
11043;DHT22;5574;48.786;10.120;2023-05-27T07:15:42;17.10;95.80
11043;DHT22;5574;48.786;10.120;2023-05-27T07:18:09;17.10;95.40
11043;DHT22;5574;48.786;10.120;2023-05-27T07:20:35;17.10;95.80
11043;DHT22;5574;48.786;10.120;2023-05-27T07:23:03;17.10;95.40
11043;DHT22;5574;48.786;10.120;2023-05-27T07:25:30;17.20;96.00
11043;DHT22;5574;48.786;10.120;2023-05-27T07:27:57;17.20;95.70
11043;DHT22;5574;48.786;10.120;2023-05-27T07:30:24;17.30;95.90
11043;DHT22;5574;48.786;10.120;2023-05-27T07:32:51;17.40;95.80
11043;DHT22;5574;48.786;10.120;2023-05-27T07:35:18;17.50;96.00
11043;DHT22;5574;48.786;10.120;2023-05-27T07:37:44;17.70;96.40
11043;DHT22;5574;48.786;10.120;2023-05-27T07:40:12;17.80;95.90
11043;DHT22;5574;48.786;10.120;2023-05-27T07:42:39;17.80;96.20
11043;DHT22;5574;48.786;10.120;2023-05-27T07:45:07;17.90;95.90
11043;DHT22;5574;48.786;10.120;2023-05-27T07:47:34;17.80;95.00
11043;DHT22;5574;48.786;10.120;2023-05-27T07:50:00;17.90;95.80
11043;DHT22;5574;48.786;10.120;2023-05-27T07:52:28;18.10;95.80
11043;DHT22;5574;48.786;10.120;2023-05-27T07:54:55;18.10;95.10
11043;DHT22;5574;48.786;10.120;2023-05-27T07:57:24;18.20;95.20
11043;DHT22;5574;48.786;10.120;2023-05-27T07:59:51;18.40;95.50
11043;DHT22;5574;48.786;10.120;2023-05-27T08:02:17;18.40;95.20
11043;DHT22;5574;48.786;10.120;2023-05-27T08:04:47;18.40;95.70
11043;DHT22;5574;48.786;10.120;2023-05-27T08:07:14;18.40;94.70
11043;DHT22;5574;48.786;10.120;2023-05-27T08:09:40;18.40;94.50
11043;DHT22;5574;48.786;10.120;2023-05-27T08:12:07;18.40;94.50
11043;DHT22;5574;48.786;10.120;2023-05-27T08:14:35;18.50;94.80
11043;DHT22;5574;48.786;10.120;2023-05-27T08:17:02;18.50;94.60
11043;DHT22;5574;48.786;10.120;2023-05-27T08:19:29;18.50;94.50
11043;DHT22;5574;48.786;10.120;2023-05-27T08:21:56;18.60;94.90
11043;DHT22;5574;48.786;10.120;2023-05-27T08:24:23;18.70;94.70
11043;DHT22;5574;48.786;10.120;2023-05-27T08:26:49;18.70;97.00
11043;DHT22;5574;48.786;10.120;2023-05-27T08:29:16;18.80;94.60
11043;DHT22;5574;48.786;10.120;2023-05-27T08:31:44;18.70;94.60
11043;DHT22;5574;48.786;10.120;2023-05-27T08:34:11;18.90;95.60
11043;DHT22;5574;48.786;10.120;2023-05-27T08:36:37;18.80;95.70
11043;DHT22;5574;48.786;10.120;2023-05-27T08:39:04;19.00;95.10
11043;DHT22;5574;48.786;10.120;2023-05-27T08:41:32;18.90;94.10
11043;DHT22;5574;48.786;10.120;2023-05-27T08:43:59;19.00;95.50
11043;DHT22;5574;48.786;10.120;2023-05-27T08:46:26;19.00;93.80
11043;DHT22;5574;48.786;10.120;2023-05-27T08:48:55;19.10;94.70
11043;DHT22;5574;48.786;10.120;2023-05-27T08:51:22;19.20;95.00
11043;DHT22;5574;48.786;10.120;2023-05-27T08:53:49;19.30;97.10
11043;DHT22;5574;48.786;10.120;2023-05-27T08:56:18;19.40;95.60
11043;DHT22;5574;48.786;10.120;2023-05-27T08:58:47;19.30;94.80
11043;DHT22;5574;48.786;10.120;2023-05-27T09:01:16;19.40;95.60
11043;DHT22;5574;48.786;10.120;2023-05-27T09:03:43;19.40;96.80
11043;DHT22;5574;48.786;10.120;2023-05-27T09:06:11;19.50;96.90
11043;DHT22;5574;48.786;10.120;2023-05-27T09:08:38;19.60;95.70
11043;DHT22;5574;48.786;10.120;2023-05-27T09:11:05;19.70;95.90
11043;DHT22;5574;48.786;10.120;2023-05-27T09:13:33;19.80;95.40
11043;DHT22;5574;48.786;10.120;2023-05-27T09:16:01;19.70;93.90
11043;DHT22;5574;48.786;10.120;2023-05-27T09:18:29;19.80;93.90
11043;DHT22;5574;48.786;10.120;2023-05-27T09:20:56;20.10;94.90
11043;DHT22;5574;48.786;10.120;2023-05-27T09:23:25;20.20;94.00
11043;DHT22;5574;48.786;10.120;2023-05-27T09:25:52;20.20;94.00
11043;DHT22;5574;48.786;10.120;2023-05-27T09:28:21;20.30;93.50
11043;DHT22;5574;48.786;10.120;2023-05-27T09:30:58;20.40;93.30
11043;DHT22;5574;48.786;10.120;2023-05-27T09:33:26;20.40;93.10
11043;DHT22;5574;48.786;10.120;2023-05-27T09:35:52;20.50;92.90
11043;DHT22;5574;48.786;10.120;2023-05-27T09:38:19;20.60;92.20
11043;DHT22;5574;48.786;10.120;2023-05-27T09:40:47;20.70;93.50
11043;DHT22;5574;48.786;10.120;2023-05-27T09:43:14;20.90;94.60
11043;DHT22;5574;48.786;10.120;2023-05-27T09:45:42;20.80;93.00
11043;DHT22;5574;48.786;10.120;2023-05-27T09:48:10;20.80;91.40
11043;DHT22;5574;48.786;10.120;2023-05-27T09:50:39;20.70;91.40
11043;DHT22;5574;48.786;10.120;2023-05-27T09:53:06;20.90;92.70
11043;DHT22;5574;48.786;10.120;2023-05-27T09:55:33;21.00;93.40
11043;DHT22;5574;48.786;10.120;2023-05-27T09:58:02;21.10;91.40
11043;DHT22;5574;48.786;10.120;2023-05-27T10:00:28;21.10;92.30
11043;DHT22;5574;48.786;10.120;2023-05-27T10:02:59;21.20;91.60
11043;DHT22;5574;48.786;10.120;2023-05-27T10:05:28;21.30;91.10
11043;DHT22;5574;48.786;10.120;2023-05-27T10:07:55;21.30;90.80
11043;DHT22;5574;48.786;10.120;2023-05-27T10:10:22;21.40;90.90
11043;DHT22;5574;48.786;10.120;2023-05-27T10:12:50;21.20;88.80
11043;DHT22;5574;48.786;10.120;2023-05-27T10:15:24;21.20;90.50
11043;DHT22;5574;48.786;10.120;2023-05-27T10:17:54;21.40;91.70
11043;DHT22;5574;48.786;10.120;2023-05-27T10:20:26;21.40;90.80
11043;DHT22;5574;48.786;10.120;2023-05-27T10:22:53;21.50;90.40
11043;DHT22;5574;48.786;10.120;2023-05-27T10:25:20;21.50;89.20
11043;DHT22;5574;48.786;10.120;2023-05-27T10:27:47;21.50;88.20
11043;DHT22;5574;48.786;10.120;2023-05-27T10:30:15;21.50;89.00
11043;DHT22;5574;48.786;10.120;2023-05-27T10:32:44;21.70;91.90
11043;DHT22;5574;48.786;10.120;2023-05-27T10:35:14;21.90;90.00
11043;DHT22;5574;48.786;10.120;2023-05-27T10:37:41;22.00;88.80
11043;DHT22;5574;48.786;10.120;2023-05-27T10:40:09;22.00;87.50
11043;DHT22;5574;48.786;10.120;2023-05-27T10:42:36;22.10;88.80
11043;DHT22;5574;48.786;10.120;2023-05-27T10:45:08;22.10;89.60
11043;DHT22;5574;48.786;10.120;2023-05-27T10:47:36;22.10;88.20
11043;DHT22;5574;48.786;10.120;2023-05-27T10:50:11;22.30;87.80
11043;DHT22;5574;48.786;10.120;2023-05-27T10:52:40;22.40;88.70
11043;DHT22;5574;48.786;10.120;2023-05-27T10:55:07;22.30;87.10
11043;DHT22;5574;48.786;10.120;2023-05-27T10:57:34;22.20;89.70
11043;DHT22;5574;48.786;10.120;2023-05-27T11:00:03;22.30;91.00
11043;DHT22;5574;48.786;10.120;2023-05-27T11:02:35;22.40;90.90
11043;DHT22;5574;48.786;10.120;2023-05-27T11:05:08;22.20;88.40
11043;DHT22;5574;48.786;10.120;2023-05-27T11:07:38;22.20;91.00
11043;DHT22;5574;48.786;10.120;2023-05-27T11:10:07;22.30;91.00
11043;DHT22;5574;48.786;10.120;2023-05-27T11:12:34;22.30;90.20
11043;DHT22;5574;48.786;10.120;2023-05-27T11:15:01;22.40;91.80
11043;DHT22;5574;48.786;10.120;2023-05-27T11:17:28;22.20;87.60
11043;DHT22;5574;48.786;10.120;2023-05-27T11:19:55;22.30;91.50
11043;DHT22;5574;48.786;10.120;2023-05-27T11:22:22;22.50;92.30
11043;DHT22;5574;48.786;10.120;2023-05-27T11:24:57;22.50;92.30
11043;DHT22;5574;48.786;10.120;2023-05-27T11:27:24;22.70;89.60
11043;DHT22;5574;48.786;10.120;2023-05-27T11:29:52;22.50;90.00
11043;DHT22;5574;48.786;10.120;2023-05-27T11:32:19;22.30;87.20
11043;DHT22;5574;48.786;10.120;2023-05-27T11:34:46;22.30;86.40
11043;DHT22;5574;48.786;10.120;2023-05-27T11:37:13;22.40;87.30
11043;DHT22;5574;48.786;10.120;2023-05-27T11:39:49;22.30;85.40
11043;DHT22;5574;48.786;10.120;2023-05-27T11:42:20;22.40;85.50
11043;DHT22;5574;48.786;10.120;2023-05-27T11:44:50;22.50;85.50
11043;DHT22;5574;48.786;10.120;2023-05-27T11:47:17;22.70;87.00
11043;DHT22;5574;48.786;10.120;2023-05-27T11:49:45;22.60;85.30
11043;DHT22;5574;48.786;10.120;2023-05-27T11:52:12;22.70;84.80
11043;DHT22;5574;48.786;10.120;2023-05-27T11:54:38;22.70;85.30
11043;DHT22;5574;48.786;10.120;2023-05-27T11:57:05;22.80;83.50
11043;DHT22;5574;48.786;10.120;2023-05-27T11:59:34;22.70;83.90
11043;DHT22;5574;48.786;10.120;2023-05-27T12:02:01;22.70;85.70
11043;DHT22;5574;48.786;10.120;2023-05-27T12:04:29;22.90;91.30
11043;DHT22;5574;48.786;10.120;2023-05-27T12:06:56;23.00;88.50
11043;DHT22;5574;48.786;10.120;2023-05-27T12:09:23;22.90;81.30
11043;DHT22;5574;48.786;10.120;2023-05-27T12:11:50;23.00;81.20
11043;DHT22;5574;48.786;10.120;2023-05-27T12:14:17;22.80;80.00
11043;DHT22;5574;48.786;10.120;2023-05-27T12:16:45;23.00;85.80
11043;DHT22;5574;48.786;10.120;2023-05-27T12:19:11;22.80;78.70
11043;DHT22;5574;48.786;10.120;2023-05-27T12:21:38;23.00;82.20
11043;DHT22;5574;48.786;10.120;2023-05-27T12:24:05;23.00;81.80
11043;DHT22;5574;48.786;10.120;2023-05-27T12:26:32;23.20;83.00
11043;DHT22;5574;48.786;10.120;2023-05-27T12:28:59;23.30;84.60
11043;DHT22;5574;48.786;10.120;2023-05-27T12:31:25;23.30;81.30
11043;DHT22;5574;48.786;10.120;2023-05-27T12:33:53;23.20;83.30
11043;DHT22;5574;48.786;10.120;2023-05-27T12:36:20;23.30;81.20
11043;DHT22;5574;48.786;10.120;2023-05-27T12:38:47;23.30;82.30
11043;DHT22;5574;48.786;10.120;2023-05-27T12:41:13;23.40;87.90
11043;DHT22;5574;48.786;10.120;2023-05-27T12:43:41;23.40;80.40
11043;DHT22;5574;48.786;10.120;2023-05-27T12:46:08;23.30;80.50
11043;DHT22;5574;48.786;10.120;2023-05-27T12:48:35;23.40;81.70
11043;DHT22;5574;48.786;10.120;2023-05-27T12:51:03;23.40;82.10
11043;DHT22;5574;48.786;10.120;2023-05-27T12:53:30;23.50;82.20
11043;DHT22;5574;48.786;10.120;2023-05-27T12:55:56;23.60;79.00
11043;DHT22;5574;48.786;10.120;2023-05-27T12:58:23;23.60;78.70
11043;DHT22;5574;48.786;10.120;2023-05-27T13:00:50;23.40;74.20
11043;DHT22;5574;48.786;10.120;2023-05-27T13:03:17;23.40;77.60
11043;DHT22;5574;48.786;10.120;2023-05-27T13:05:43;23.30;75.40
11043;DHT22;5574;48.786;10.120;2023-05-27T13:08:11;23.40;77.00
11043;DHT22;5574;48.786;10.120;2023-05-27T13:10:38;23.50;79.00
11043;DHT22;5574;48.786;10.120;2023-05-27T13:13:06;23.40;77.30
11043;DHT22;5574;48.786;10.120;2023-05-27T13:15:32;23.60;80.80
11043;DHT22;5574;48.786;10.120;2023-05-27T13:17:59;23.70;82.20
11043;DHT22;5574;48.786;10.120;2023-05-27T13:20:28;23.50;77.30
11043;DHT22;5574;48.786;10.120;2023-05-27T13:22:55;23.60;75.20
11043;DHT22;5574;48.786;10.120;2023-05-27T13:25:26;23.40;76.60
11043;DHT22;5574;48.786;10.120;2023-05-27T13:27:55;23.30;71.00
11043;DHT22;5574;48.786;10.120;2023-05-27T13:30:22;23.40;74.20
11043;DHT22;5574;48.786;10.120;2023-05-27T13:32:48;23.40;73.50
11043;DHT22;5574;48.786;10.120;2023-05-27T13:35:15;23.50;74.10
11043;DHT22;5574;48.786;10.120;2023-05-27T13:37:42;23.50;72.20
11043;DHT22;5574;48.786;10.120;2023-05-27T13:40:09;23.50;70.00
11043;DHT22;5574;48.786;10.120;2023-05-27T13:42:38;23.60;69.00
11043;DHT22;5574;48.786;10.120;2023-05-27T13:45:06;23.50;70.70
11043;DHT22;5574;48.786;10.120;2023-05-27T13:47:33;23.50;69.40
11043;DHT22;5574;48.786;10.120;2023-05-27T13:50:00;23.50;70.00
11043;DHT22;5574;48.786;10.120;2023-05-27T13:52:27;23.40;70.80
11043;DHT22;5574;48.786;10.120;2023-05-27T13:54:53;23.50;73.10
11043;DHT22;5574;48.786;10.120;2023-05-27T13:57:20;23.50;71.70
11043;DHT22;5574;48.786;10.120;2023-05-27T13:59:48;23.40;69.20
11043;DHT22;5574;48.786;10.120;2023-05-27T14:02:15;23.40;68.80
11043;DHT22;5574;48.786;10.120;2023-05-27T14:04:41;23.40;67.40
11043;DHT22;5574;48.786;10.120;2023-05-27T14:07:08;23.40;71.20
11043;DHT22;5574;48.786;10.120;2023-05-27T14:09:35;23.50;71.20
11043;DHT22;5574;48.786;10.120;2023-05-27T14:12:02;23.40;71.10
11043;DHT22;5574;48.786;10.120;2023-05-27T14:14:29;23.30;71.20
11043;DHT22;5574;48.786;10.120;2023-05-27T14:16:57;23.50;73.10
11043;DHT22;5574;48.786;10.120;2023-05-27T14:19:23;23.60;68.70
11043;DHT22;5574;48.786;10.120;2023-05-27T14:21:50;23.40;67.80
11043;DHT22;5574;48.786;10.120;2023-05-27T14:24:17;23.40;69.10
11043;DHT22;5574;48.786;10.120;2023-05-27T14:26:44;23.30;70.90
11043;DHT22;5574;48.786;10.120;2023-05-27T14:29:11;23.20;69.80
11043;DHT22;5574;48.786;10.120;2023-05-27T14:31:37;23.10;69.70
11043;DHT22;5574;48.786;10.120;2023-05-27T14:34:06;23.00;70.70
11043;DHT22;5574;48.786;10.120;2023-05-27T14:36:32;23.20;72.40
11043;DHT22;5574;48.786;10.120;2023-05-27T14:38:59;23.20;68.30
11043;DHT22;5574;48.786;10.120;2023-05-27T14:41:28;23.40;70.90
11043;DHT22;5574;48.786;10.120;2023-05-27T14:43:55;23.50;69.90
11043;DHT22;5574;48.786;10.120;2023-05-27T14:46:22;23.60;71.20
11043;DHT22;5574;48.786;10.120;2023-05-27T14:48:48;23.60;72.20
11043;DHT22;5574;48.786;10.120;2023-05-27T14:51:16;23.70;70.00
11043;DHT22;5574;48.786;10.120;2023-05-27T14:53:43;23.60;69.20
11043;DHT22;5574;48.786;10.120;2023-05-27T14:56:10;23.80;70.10
11043;DHT22;5574;48.786;10.120;2023-05-27T14:58:36;23.60;68.30
11043;DHT22;5574;48.786;10.120;2023-05-27T15:01:04;23.50;69.80
11043;DHT22;5574;48.786;10.120;2023-05-27T15:03:31;23.40;69.90
11043;DHT22;5574;48.786;10.120;2023-05-27T15:05:58;23.20;68.30
11043;DHT22;5574;48.786;10.120;2023-05-27T15:08:26;23.20;70.10
11043;DHT22;5574;48.786;10.120;2023-05-27T15:10:52;23.20;69.20
11043;DHT22;5574;48.786;10.120;2023-05-27T15:13:19;23.20;69.00
11043;DHT22;5574;48.786;10.120;2023-05-27T15:15:46;23.20;71.20
11043;DHT22;5574;48.786;10.120;2023-05-27T15:18:12;23.00;71.00
11043;DHT22;5574;48.786;10.120;2023-05-27T15:20:39;23.10;72.60
11043;DHT22;5574;48.786;10.120;2023-05-27T15:23:06;23.10;71.70
11043;DHT22;5574;48.786;10.120;2023-05-27T15:25:34;22.90;70.00
11043;DHT22;5574;48.786;10.120;2023-05-27T15:28:01;22.80;69.20
11043;DHT22;5574;48.786;10.120;2023-05-27T15:30:28;22.80;69.20